Time;durP1;ratioP1;P1;durP2;ratioP2;P2;SDS_P1;SDS_P2;PMS_P1;PMS_P2;Temp;Humidity;BMP_temperature;BMP_pressure;BME280_temperature;BME280_humidity;BME280_pressure;Samples;Min_cycle;Max_cycle;Signal;HPM_P1;HPM_P2
2023/12/16 00:01:46;;;;;;;71.55;11.65;;;7.90;98.60;;;;;;5005240;28;20045;-50
2023/12/16 00:04:11;;;;;;;66.65;11.88;;;8.00;98.60;;;;;;5005243;28;20061;-50
2023/12/16 00:06:40;;;;;;;55.83;11.88;;;7.90;98.60;;;;;;5006589;28;20087;-49
2023/12/16 00:09:05;;;;;;;50.05;11.70;;;7.90;98.60;;;;;;5005124;28;20160;-50
2023/12/16 00:11:31;;;;;;;66.57;11.70;;;7.90;98.60;;;;;;5005269;28;20124;-50
2023/12/16 00:13:57;;;;;;;57.70;11.70;;;7.90;98.70;;;;;;5006434;28;20121;-50
2023/12/16 00:16:24;;;;;;;43.35;11.32;;;7.80;98.60;;;;;;4989117;28;20019;-50
2023/12/16 00:18:49;;;;;;;54.92;11.95;;;7.80;98.70;;;;;;5005079;28;20090;-49
2023/12/16 00:21:15;;;;;;;55.63;10.75;;;7.80;98.70;;;;;;5006433;28;20023;-50
2023/12/16 00:23:41;;;;;;;63.08;11.68;;;7.80;98.80;;;;;;5006127;28;20045;-49
2023/12/16 00:26:06;;;;;;;55.30;11.65;;;7.80;98.80;;;;;;5004831;28;20096;-50
2023/12/16 00:28:32;;;;;;;44.15;11.65;;;7.70;98.80;;;;;;4988562;28;20053;-50
2023/12/16 00:30:58;;;;;;;56.78;11.02;;;7.70;98.90;;;;;;5004990;28;20486;-50
2023/12/16 00:33:23;;;;;;;50.90;11.40;;;7.70;98.90;;;;;;5005946;28;20065;-50
2023/12/16 00:35:49;;;;;;;53.58;10.55;;;7.70;98.90;;;;;;5006147;28;20034;-50
2023/12/16 00:38:14;;;;;;;46.58;10.23;;;7.60;98.90;;;;;;5004704;28;20030;-50
2023/12/16 00:40:40;;;;;;;52.80;11.45;;;7.60;98.90;;;;;;5006009;28;20030;-50
2023/12/16 00:43:05;;;;;;;55.03;10.18;;;7.60;98.90;;;;;;5005901;28;20030;-50
2023/12/16 00:45:31;;;;;;;54.80;10.73;;;7.60;99.00;;;;;;5005882;28;20054;-50
2023/12/16 00:47:57;;;;;;;34.17;10.25;;;7.60;98.90;;;;;;5004493;28;20470;-50
2023/12/16 00:50:22;;;;;;;40.42;9.93;;;7.60;99.00;;;;;;5004514;28;20030;-49
2023/12/16 00:52:48;;;;;;;42.20;10.68;;;7.50;99.00;;;;;;4988324;28;20037;-50
2023/12/16 00:55:14;;;;;;;43.70;9.13;;;7.50;99.10;;;;;;5004226;28;20030;-49
2023/12/16 00:57:39;;;;;;;42.47;10.80;;;7.50;99.10;;;;;;5004473;28;20038;-50
2023/12/16 01:00:06;;;;;;;42.50;9.88;;;7.50;99.10;;;;;;5004420;28;20035;-50
2023/12/16 01:02:32;;;;;;;41.47;10.40;;;7.50;99.10;;;;;;4987825;28;20498;-50
2023/12/16 01:04:57;;;;;;;42.55;10.52;;;7.40;99.10;;;;;;5005654;28;20026;-50
2023/12/16 01:07:23;;;;;;;41.63;8.93;;;7.40;99.10;;;;;;5005695;28;20023;-50
2023/12/16 01:09:51;;;;;;;39.90;10.23;;;7.40;99.20;;;;;;5005389;28;20041;-50
2023/12/16 01:12:16;;;;;;;39.47;10.10;;;7.40;99.20;;;;;;5004144;28;20030;-49
2023/12/16 01:14:42;;;;;;;51.30;11.32;;;7.40;99.20;;;;;;5003987;28;20047;-50
2023/12/16 01:17:07;;;;;;;37.15;10.13;;;7.40;99.10;;;;;;5004231;28;20027;-50
2023/12/16 01:19:33;;;;;;;45.45;11.52;;;7.40;99.20;;;;;;5005532;28;20463;-49
2023/12/16 01:21:58;;;;;;;44.65;11.32;;;7.30;99.20;;;;;;5005246;28;20033;-50
2023/12/16 01:24:24;;;;;;;39.33;11.27;;;7.30;99.20;;;;;;5004749;28;20165;-49
2023/12/16 01:26:49;;;;;;;31.90;10.20;;;7.30;99.20;;;;;;5006044;28;20084;-49
2023/12/16 01:29:15;;;;;;;30.92;10.15;;;7.30;99.30;;;;;;5006253;28;20043;-50
2023/12/16 01:31:41;;;;;;;55.20;12.05;;;7.20;99.30;;;;;;4988129;28;20045;-50
2023/12/16 01:34:06;;;;;;;48.15;12.43;;;7.30;99.40;;;;;;5004062;28;20497;-50
2023/12/16 01:36:32;;;;;;;36.92;10.73;;;7.20;99.30;;;;;;5003828;28;20056;-50
2023/12/16 01:38:58;;;;;;;42.88;11.38;;;7.20;99.30;;;;;;5005165;28;20060;-50
2023/12/16 01:41:23;;;;;;;36.45;12.32;;;7.20;99.30;;;;;;5005168;28;20160;-50
2023/12/16 01:43:49;;;;;;;36.42;11.88;;;7.20;99.30;;;;;;5003746;28;20094;-50
2023/12/16 01:46:15;;;;;;;31.35;11.52;;;7.20;99.30;;;;;;5003671;28;20034;-50
2023/12/16 01:48:41;;;;;;;37.85;11.13;;;7.10;99.30;;;;;;5003782;28;20035;-50
2023/12/16 01:51:07;;;;;;;33.67;10.48;;;7.20;99.30;;;;;;4987669;28;20063;-50
2023/12/16 01:53:33;;;;;;;37.63;11.20;;;7.10;99.30;;;;;;4987365;28;20026;-50
2023/12/16 01:55:58;;;;;;;35.03;11.38;;;7.10;99.30;;;;;;4987581;28;20022;-49
2023/12/16 01:58:24;;;;;;;34.80;11.30;;;7.10;99.30;;;;;;4987373;28;20045;-49
2023/12/16 02:00:52;;;;;;;37.03;12.30;;;7.10;99.30;;;;;;5003682;28;20074;-50
2023/12/16 02:03:18;;;;;;;34.03;12.07;;;7.10;99.60;;;;;;4987457;28;20045;-50
2023/12/16 02:05:44;;;;;;;39.92;11.77;;;7.10;99.40;;;;;;4987664;28;20103;-50
2023/12/16 02:08:09;;;;;;;32.28;11.23;;;7.00;99.40;;;;;;5003446;28;20042;-50
2023/12/16 02:10:35;;;;;;;26.98;11.80;;;7.00;99.50;;;;;;5003437;28;20118;-49
2023/12/16 02:13:04;;;;;;;30.23;11.38;;;7.00;99.50;;;;;;5003359;28;20045;-50
2023/12/16 02:15:30;;;;;;;30.08;11.15;;;7.00;99.50;;;;;;5004531;28;20014;-49
2023/12/16 02:17:55;;;;;;;28.35;11.43;;;7.00;99.60;;;;;;5002942;28;20038;-49
2023/12/16 02:20:22;;;;;;;28.95;10.95;;;7.00;99.60;;;;;;5006803;28;20023;-50
2023/12/16 02:22:47;;;;;;;28.33;10.63;;;7.00;99.70;;;;;;5006027;28;20378;-50
2023/12/16 02:25:14;;;;;;;28.77;11.10;;;7.00;99.70;;;;;;5004266;28;20027;-50
2023/12/16 02:27:40;;;;;;;26.88;11.63;;;7.00;99.70;;;;;;5003648;28;20058;-50
2023/12/16 02:30:07;;;;;;;28.38;11.45;;;6.90;99.80;;;;;;5003197;28;20050;-50
2023/12/16 02:32:33;;;;;;;23.70;11.88;;;6.90;99.80;;;;;;5003211;28;20026;-50
2023/12/16 02:34:58;;;;;;;26.65;11.43;;;6.90;99.80;;;;;;5002979;28;20022;-50
2023/12/16 02:37:24;;;;;;;30.50;11.30;;;7.00;99.80;;;;;;5003006;28;20044;-50
2023/12/16 02:39:49;;;;;;;25.38;11.38;;;6.90;99.90;;;;;;5004120;28;20034;-50
2023/12/16 02:42:15;;;;;;;29.67;12.38;;;6.90;99.90;;;;;;5002837;28;20018;-50
2023/12/16 02:44:41;;;;;;;31.75;11.02;;;6.90;99.90;;;;;;5002883;28;20500;-49
2023/12/16 02:47:08;;;;;;;33.83;11.70;;;6.90;99.90;;;;;;5004158;28;20030;-50
2023/12/16 02:49:33;;;;;;;29.17;11.95;;;6.90;99.90;;;;;;5004227;28;20037;-49
2023/12/16 02:51:59;;;;;;;24.35;10.25;;;6.90;99.90;;;;;;4986717;28;20054;-50
2023/12/16 02:54:26;;;;;;;29.20;11.38;;;6.90;99.90;;;;;;5002629;28;20057;-50
2023/12/16 02:56:51;;;;;;;33.45;13.02;;;6.90;99.90;;;;;;4986760;28;20036;-50
2023/12/16 02:59:17;;;;;;;30.30;11.98;;;6.90;99.90;;;;;;5004010;28;20031;-57
2023/12/16 03:01:42;;;;;;;31.00;12.32;;;6.80;99.90;;;;;;5002697;28;20082;-58
2023/12/16 03:04:08;;;;;;;27.73;12.30;;;6.90;99.90;;;;;;5002718;28;20505;-58
2023/12/16 03:06:35;;;;;;;28.05;12.07;;;6.90;99.90;;;;;;4986273;28;20029;-58
2023/12/16 03:09:01;;;;;;;30.55;11.10;;;6.90;99.90;;;;;;5003896;28;20060;-58
2023/12/16 03:11:27;;;;;;;25.33;11.85;;;6.90;99.90;;;;;;4986566;28;20101;-58
2023/12/16 03:13:52;;;;;;;27.02;13.32;;;6.90;99.90;;;;;;5002443;28;20042;-58
2023/12/16 03:16:19;;;;;;;23.02;11.98;;;6.90;99.90;;;;;;5002609;28;20027;-58
2023/12/16 03:18:44;;;;;;;25.40;12.45;;;6.90;99.90;;;;;;4986293;28;20508;-58
2023/12/16 03:21:10;;;;;;;28.80;12.63;;;6.90;99.90;;;;;;5003896;28;20029;-58
2023/12/16 03:23:36;;;;;;;23.92;12.63;;;6.90;99.90;;;;;;5007228;28;20053;-59
2023/12/16 03:26:02;;;;;;;23.70;12.15;;;6.80;99.90;;;;;;5007044;28;20030;-58
2023/12/16 03:28:28;;;;;;;28.88;13.23;;;6.80;99.90;;;;;;5005853;28;20037;-58
2023/12/16 03:30:54;;;;;;;23.20;12.45;;;6.90;99.90;;;;;;4973554;28;20042;-58
2023/12/16 03:33:26;;;;;;;25.33;12.90;;;6.90;99.90;;;;;;5006861;28;20034;-58
2023/12/16 03:35:51;;;;;;;26.48;13.20;;;6.80;99.90;;;;;;5005722;28;20030;-50
2023/12/16 03:38:17;;;;;;;25.02;12.75;;;6.90;99.90;;;;;;5006973;28;20030;-49
2023/12/16 03:40:42;;;;;;;24.27;12.13;;;6.90;99.90;;;;;;5005925;28;20023;-49
2023/12/16 03:43:08;;;;;;;30.20;13.40;;;6.90;99.90;;;;;;5006951;28;20041;-50
2023/12/16 03:45:33;;;;;;;26.60;13.38;;;6.90;99.90;;;;;;5006830;28;20022;-49
2023/12/16 03:47:59;;;;;;;24.95;13.30;;;6.90;99.90;;;;;;5005564;28;20031;-50
2023/12/16 03:50:25;;;;;;;25.75;12.27;;;6.90;99.90;;;;;;5006861;28;20454;-50
2023/12/16 03:52:50;;;;;;;21.70;12.88;;;6.90;99.90;;;;;;4973143;28;20050;-49
2023/12/16 03:55:16;;;;;;;27.90;12.32;;;6.90;99.90;;;;;;5006697;28;20523;-49
2023/12/16 03:57:41;;;;;;;24.42;11.75;;;6.90;99.90;;;;;;5005341;28;20038;-50
2023/12/16 04:00:10;;;;;;;24.23;12.85;;;6.90;99.90;;;;;;5005572;28;20042;-49
2023/12/16 04:02:36;;;;;;;26.63;12.68;;;6.90;99.90;;;;;;5005123;28;20018;-50
2023/12/16 04:05:01;;;;;;;26.52;12.65;;;6.90;99.90;;;;;;5005229;28;20594;-50
2023/12/16 04:07:27;;;;;;;24.10;12.57;;;6.90;99.90;;;;;;5006448;28;20037;-49
2023/12/16 04:09:54;;;;;;;25.52;12.55;;;6.90;99.90;;;;;;5005383;28;20030;-50
2023/12/16 04:12:19;;;;;;;20.73;12.35;;;6.90;99.90;;;;;;5006206;28;20033;-50
2023/12/16 04:14:45;;;;;;;21.08;12.40;;;6.90;99.90;;;;;;5005113;28;20054;-50
2023/12/16 04:17:10;;;;;;;21.27;12.32;;;7.00;99.90;;;;;;5005315;28;20031;-49
2023/12/16 04:19:37;;;;;;;25.92;13.00;;;6.90;99.90;;;;;;5006484;28;20038;-50
2023/12/16 04:22:02;;;;;;;29.95;12.98;;;6.90;99.90;;;;;;4988738;28;20031;-49
2023/12/16 04:24:28;;;;;;;23.73;12.85;;;6.90;99.90;;;;;;5005093;28;20052;-50
2023/12/16 04:26:55;;;;;;;24.75;12.25;;;6.90;99.90;;;;;;5006186;28;20038;-49
2023/12/16 04:29:21;;;;;;;29.00;12.43;;;6.90;99.90;;;;;;5004783;28;20045;-49
2023/12/16 04:31:46;;;;;;;20.92;12.00;;;6.90;99.90;;;;;;5006070;28;20046;-50
2023/12/16 04:34:12;;;;;;;22.20;13.30;;;6.90;99.90;;;;;;5006154;28;20042;-50
2023/12/16 04:36:37;;;;;;;25.02;11.77;;;6.90;99.90;;;;;;5006150;28;20023;-50
2023/12/16 04:39:07;;;;;;;18.65;12.30;;;6.90;99.90;;;;;;5004813;28;20482;-49
2023/12/16 04:41:33;;;;;;;19.52;12.10;;;6.90;99.90;;;;;;5006186;28;20022;-50
2023/12/16 04:43:59;;;;;;;20.35;12.00;;;6.90;99.90;;;;;;5006044;28;20030;-49
2023/12/16 04:46:25;;;;;;;21.10;12.82;;;6.90;99.90;;;;;;4988782;28;20106;-50
2023/12/16 04:48:51;;;;;;;18.63;11.25;;;6.90;99.90;;;;;;5005165;28;20038;-50
2023/12/16 04:51:16;;;;;;;20.17;12.30;;;6.70;99.90;;;;;;5004564;28;20026;-49
2023/12/16 04:53:42;;;;;;;21.33;11.70;;;6.90;99.90;;;;;;5004249;28;20053;-50
2023/12/16 04:56:08;;;;;;;16.55;11.40;;;6.90;99.90;;;;;;5004782;28;20071;-50
2023/12/16 04:58:34;;;;;;;19.98;11.77;;;6.90;99.90;;;;;;5004187;28;20056;-50
2023/12/16 05:00:59;;;;;;;18.70;11.48;;;6.90;99.90;;;;;;5004491;28;20022;-49
2023/12/16 05:03:25;;;;;;;22.35;11.98;;;6.90;99.90;;;;;;5005828;28;20062;-50
2023/12/16 05:05:50;;;;;;;22.70;12.15;;;6.90;99.90;;;;;;5004437;28;20079;-50
2023/12/16 05:08:16;;;;;;;21.23;11.98;;;6.90;99.90;;;;;;4989320;28;20038;-49
2023/12/16 05:10:43;;;;;;;25.27;11.55;;;6.90;99.90;;;;;;5004567;28;20085;-50
2023/12/16 05:13:10;;;;;;;19.45;12.00;;;6.90;99.90;;;;;;5005221;28;20042;-50
2023/12/16 05:15:37;;;;;;;19.60;11.20;;;6.90;99.90;;;;;;5005464;28;20029;-49
2023/12/16 05:18:02;;;;;;;27.13;11.75;;;6.90;99.90;;;;;;5005309;28;20099;-50
2023/12/16 05:20:28;;;;;;;20.17;11.98;;;6.90;99.90;;;;;;5004402;28;20050;-50
2023/12/16 05:22:53;;;;;;;23.05;11.27;;;6.90;99.90;;;;;;5004351;28;20041;-50
2023/12/16 05:25:19;;;;;;;21.65;12.10;;;6.90;99.90;;;;;;5005317;28;20026;-50
2023/12/16 05:27:44;;;;;;;18.80;12.23;;;6.90;99.90;;;;;;4987913;28;20030;-50
2023/12/16 05:30:11;;;;;;;23.30;11.77;;;6.90;99.90;;;;;;5005220;28;20034;-50
2023/12/16 05:32:36;;;;;;;21.13;12.40;;;6.90;99.90;;;;;;5003757;28;20042;-50
2023/12/16 05:35:02;;;;;;;20.33;11.63;;;6.90;99.90;;;;;;4971647;28;20026;-49
2023/12/16 05:37:28;;;;;;;21.83;12.20;;;6.90;99.90;;;;;;5004234;28;20532;-49
2023/12/16 05:39:54;;;;;;;18.52;11.93;;;6.90;99.90;;;;;;5003993;28;20037;-50
2023/12/16 05:42:19;;;;;;;17.33;11.48;;;6.90;99.90;;;;;;5004290;28;20079;-50
2023/12/16 05:44:45;;;;;;;19.25;11.32;;;6.90;99.90;;;;;;5003236;28;20080;-49
2023/12/16 05:47:13;;;;;;;22.52;12.07;;;6.90;99.90;;;;;;4987603;28;20030;-50
2023/12/16 05:49:39;;;;;;;16.95;12.00;;;6.80;99.90;;;;;;5003525;28;20102;-50
2023/12/16 05:52:05;;;;;;;15.60;10.52;;;6.90;99.90;;;;;;5004188;28;20023;-50
2023/12/16 05:54:30;;;;;;;17.67;10.85;;;6.90;99.90;;;;;;5004204;28;20087;-50
2023/12/16 05:56:56;;;;;;;13.80;10.65;;;6.90;99.90;;;;;;5004916;28;20022;-50
2023/12/16 05:59:22;;;;;;;20.20;11.63;;;6.80;99.90;;;;;;5004981;28;20049;-50
2023/12/16 06:01:48;;;;;;;16.75;11.93;;;6.90;99.90;;;;;;4987271;28;20025;-50
2023/12/16 06:04:14;;;;;;;19.75;11.57;;;6.90;99.90;;;;;;5003549;28;20042;-50
2023/12/16 06:06:40;;;;;;;18.38;12.00;;;6.80;99.90;;;;;;5003473;28;20045;-50
2023/12/16 06:09:09;;;;;;;19.30;13.00;;;6.80;99.90;;;;;;5004756;28;20034;-50
2023/12/16 06:11:34;;;;;;;20.50;12.75;;;6.80;99.90;;;;;;4987028;28;20117;-49
2023/12/16 06:14:00;;;;;;;19.15;12.40;;;6.80;99.90;;;;;;5004472;28;20058;-50
2023/12/16 06:16:25;;;;;;;18.80;11.77;;;6.80;99.90;;;;;;5003425;28;20023;-50
2023/12/16 06:18:51;;;;;;;14.57;11.57;;;6.80;99.90;;;;;;4987067;28;20053;-50
2023/12/16 06:21:17;;;;;;;18.77;11.43;;;6.80;99.90;;;;;;5003329;28;20029;-49
2023/12/16 06:23:42;;;;;;;17.10;10.82;;;6.80;99.90;;;;;;5003231;28;20046;-50
2023/12/16 06:26:08;;;;;;;14.88;11.48;;;6.80;99.90;;;;;;5003232;28;20046;-49
2023/12/16 06:28:34;;;;;;;14.15;10.38;;;6.80;99.90;;;;;;5003240;28;20056;-50
2023/12/16 06:30:59;;;;;;;21.10;10.65;;;6.80;99.90;;;;;;5002985;28;20374;-49
2023/12/16 06:33:25;;;;;;;19.50;11.50;;;6.80;99.90;;;;;;5003043;28;20057;-50
2023/12/16 06:35:51;;;;;;;15.35;11.48;;;6.80;99.90;;;;;;5004314;28;20470;-50
2023/12/16 06:38:16;;;;;;;16.88;10.63;;;6.80;99.90;;;;;;5004267;28;20035;-50
2023/12/16 06:40:42;;;;;;;15.73;10.52;;;6.80;99.90;;;;;;5004479;28;20466;-50
2023/12/16 06:43:08;;;;;;;16.60;10.75;;;6.80;99.90;;;;;;4986554;28;20461;-50
2023/12/16 06:45:34;;;;;;;14.38;10.43;;;6.70;99.90;;;;;;5002857;28;20038;-50
2023/12/16 06:48:00;;;;;;;15.13;11.27;;;6.80;99.90;;;;;;5003876;28;20033;-49
2023/12/16 06:50:25;;;;;;;14.88;9.82;;;6.70;99.90;;;;;;5003240;28;20030;-50
2023/12/16 06:52:51;;;;;;;13.15;9.73;;;6.70;99.90;;;;;;4986710;28;20026;-50
2023/12/16 06:55:17;;;;;;;16.02;10.68;;;6.70;99.90;;;;;;4985590;28;20027;-50
2023/12/16 06:57:43;;;;;;;14.73;10.15;;;6.70;99.90;;;;;;4986914;28;20535;-50
2023/12/16 07:00:09;;;;;;;13.50;10.02;;;6.70;99.90;;;;;;5003143;28;20046;-50
2023/12/16 07:02:41;;;;;;;13.30;10.07;;;6.70;99.90;;;;;;5002758;28;20047;-50
2023/12/16 07:05:08;;;;;;;14.48;9.90;;;6.70;99.90;;;;;;5004112;28;20118;-49
2023/12/16 07:07:34;;;;;;;18.17;10.80;;;6.70;99.90;;;;;;5002649;28;20037;-49
2023/12/16 07:09:59;;;;;;;14.75;10.45;;;6.70;99.90;;;;;;5004487;28;20386;-50
2023/12/16 07:12:26;;;;;;;15.00;10.20;;;6.70;99.90;;;;;;5002491;28;20026;-49
2023/12/16 07:14:51;;;;;;;16.77;10.40;;;6.70;99.90;;;;;;5003840;28;20109;-49
2023/12/16 07:17:17;;;;;;;14.90;10.45;;;6.70;99.90;;;;;;5003626;28;20018;-49
2023/12/16 07:19:42;;;;;;;12.75;9.85;;;6.70;99.90;;;;;;5003744;28;20075;-50
2023/12/16 07:22:08;;;;;;;15.63;9.85;;;6.70;99.90;;;;;;5002363;28;20213;-49
2023/12/16 07:24:34;;;;;;;14.65;9.95;;;6.60;99.90;;;;;;5003729;28;20038;-50
2023/12/16 07:26:59;;;;;;;11.75;8.95;;;6.60;99.90;;;;;;5002373;28;20124;-49
2023/12/16 07:29:25;;;;;;;13.98;9.38;;;6.60;99.90;;;;;;4986078;28;20034;-50
2023/12/16 07:31:51;;;;;;;15.93;9.88;;;6.60;99.90;;;;;;5003571;28;20082;-50
2023/12/16 07:34:16;;;;;;;13.15;9.85;;;6.60;99.90;;;;;;4986183;28;20080;-50
2023/12/16 07:36:43;;;;;;;13.98;10.05;;;6.70;99.90;;;;;;5002339;28;20065;-50
2023/12/16 07:39:09;;;;;;;14.75;9.95;;;6.60;99.90;;;;;;5003612;28;20037;-50
2023/12/16 07:41:35;;;;;;;12.00;9.25;;;6.60;99.90;;;;;;4985942;28;20015;-49
2023/12/16 07:44:01;;;;;;;14.98;9.52;;;6.60;99.90;;;;;;5003534;28;20058;-50
2023/12/16 07:46:26;;;;;;;11.48;8.43;;;6.60;99.90;;;;;;5002185;28;20061;-50
2023/12/16 07:48:52;;;;;;;12.82;9.18;;;6.60;99.90;;;;;;5002182;28;20043;-50
2023/12/16 07:51:19;;;;;;;12.65;8.10;;;6.60;99.90;;;;;;5003463;28;20045;-50
2023/12/16 07:53:48;;;;;;;12.10;9.20;;;6.60;99.90;;;;;;5002045;28;20501;-50
2023/12/16 07:56:23;;;;;;;12.55;9.63;;;6.60;99.90;;;;;;5002291;28;20026;-50
2023/12/16 07:58:49;;;;;;;;;;;6.60;99.90;;;;;;4986322;28;20058;-50
2023/12/16 08:01:15;;;;;;;14.80;9.38;;;6.60;99.90;;;;;;5003257;28;19906;-50
2023/12/16 08:03:41;;;;;;;14.57;9.93;;;6.60;99.90;;;;;;5001822;28;20064;-50
2023/12/16 08:06:10;;;;;;;9.88;8.77;;;6.60;99.90;;;;;;5003179;28;20056;-50
2023/12/16 08:08:39;;;;;;;13.10;9.10;;;6.60;99.90;;;;;;5005155;28;20042;-50
2023/12/16 08:11:05;;;;;;;11.63;9.65;;;6.60;99.90;;;;;;5005320;28;20072;-49
2023/12/16 08:13:31;;;;;;;12.40;9.38;;;6.60;99.90;;;;;;5005105;28;20087;-50
2023/12/16 08:15:56;;;;;;;14.68;9.50;;;6.60;99.90;;;;;;5005199;28;20031;-50
2023/12/16 08:18:22;;;;;;;14.35;8.55;;;6.60;99.90;;;;;;5005263;28;20038;-50
2023/12/16 08:20:48;;;;;;;12.55;9.68;;;6.50;99.90;;;;;;5005184;28;20022;-50
2023/12/16 08:23:13;;;;;;;13.35;9.40;;;6.60;99.90;;;;;;5006283;28;20046;-50
2023/12/16 08:25:39;;;;;;;12.30;9.23;;;6.50;99.90;;;;;;5006217;28;20019;-49
2023/12/16 08:28:05;;;;;;;11.77;9.18;;;6.60;99.90;;;;;;5004857;28;20118;-50
2023/12/16 08:30:30;;;;;;;11.73;8.93;;;6.60;99.90;;;;;;5005940;28;20030;-50
2023/12/16 08:32:56;;;;;;;12.82;9.63;;;6.50;99.90;;;;;;5006017;28;20049;-50
2023/12/16 08:35:21;;;;;;;11.05;8.70;;;6.60;99.90;;;;;;5004941;28;20037;-50
2023/12/16 08:37:47;;;;;;;14.30;9.13;;;6.60;99.90;;;;;;5005002;28;20081;-50
2023/12/16 08:40:12;;;;;;;15.35;8.63;;;6.60;99.90;;;;;;4999872;28;20027;-49
2023/12/16 08:42:41;;;;;;;13.45;8.90;;;6.60;99.90;;;;;;5019232;28;20033;-50
2023/12/16 08:45:07;;;;;;;13.25;9.18;;;6.60;99.90;;;;;;5025125;28;20030;-50
2023/12/16 08:47:32;;;;;;;11.60;9.30;;;6.60;99.90;;;;;;5027229;28;20030;-49
2023/12/16 08:49:58;;;;;;;11.55;8.35;;;6.60;99.90;;;;;;5026063;28;20047;-49
2023/12/16 08:52:24;;;;;;;10.52;8.90;;;6.60;99.90;;;;;;5007906;28;20061;-50
2023/12/16 08:54:49;;;;;;;12.82;8.48;;;6.60;99.90;;;;;;5023735;28;20090;-50
2023/12/16 08:57:15;;;;;;;9.90;7.70;;;6.60;99.90;;;;;;5023481;28;20474;-49
2023/12/16 08:59:40;;;;;;;12.30;8.93;;;6.60;99.90;;;;;;5024007;28;20109;-50
2023/12/16 09:02:06;;;;;;;8.82;7.57;;;6.60;99.90;;;;;;5024114;28;20018;-50
2023/12/16 09:04:32;;;;;;;9.35;7.88;;;6.60;99.90;;;;;;5019610;28;20100;-50
2023/12/16 09:06:58;;;;;;;9.95;8.20;;;6.60;99.90;;;;;;5047137;28;20032;-50
2023/12/16 09:09:23;;;;;;;11.95;8.48;;;6.60;99.90;;;;;;5007724;28;20034;-50
2023/12/16 09:11:49;;;;;;;13.50;8.18;;;6.60;99.90;;;;;;5004723;28;20393;-50
2023/12/16 09:14:14;;;;;;;24.40;10.50;;;6.60;99.90;;;;;;5005447;28;20030;-50
2023/12/16 09:16:40;;;;;;;20.42;9.25;;;6.60;99.90;;;;;;4982727;28;20051;-50
2023/12/16 09:19:07;;;;;;;26.35;9.85;;;6.60;99.90;;;;;;4992426;28;20026;-49
2023/12/16 09:21:33;;;;;;;28.20;10.10;;;6.60;99.90;;;;;;5005381;28;20057;-49
2023/12/16 09:23:59;;;;;;;22.13;10.18;;;6.60;99.90;;;;;;4999214;28;20031;-50
2023/12/16 09:26:25;;;;;;;47.38;12.57;;;6.60;99.90;;;;;;5003605;28;20107;-50
2023/12/16 09:28:51;;;;;;;43.70;12.43;;;6.60;99.90;;;;;;5003282;28;20035;-50
2023/12/16 09:31:16;;;;;;;60.75;13.73;;;6.60;99.90;;;;;;5003676;28;20030;-49
2023/12/16 09:33:42;;;;;;;52.80;11.68;;;6.60;99.90;;;;;;5004333;28;20049;-50
2023/12/16 09:36:14;;;;;;;35.45;12.02;;;6.60;99.90;;;;;;5003654;28;20034;-50
2023/12/16 09:38:40;;;;;;;53.55;12.00;;;6.60;99.90;;;;;;5004830;28;20105;-50
2023/12/16 09:41:12;;;;;;;66.55;12.77;;;6.60;99.80;;;;;;4998084;28;20559;-50
2023/12/16 09:43:37;;;;;;;52.97;12.43;;;6.60;99.90;;;;;;5003622;28;20045;-50
2023/12/16 09:46:03;;;;;;;87.90;14.45;;;6.60;99.90;;;;;;4988770;28;20034;-49
2023/12/16 09:48:29;;;;;;;132.60;19.95;;;6.70;99.90;;;;;;4999597;28;20398;-50
2023/12/16 09:50:55;;;;;;;113.18;16.45;;;6.70;99.90;;;;;;5002948;28;20162;-50
2023/12/16 09:53:21;;;;;;;88.18;16.73;;;6.70;99.90;;;;;;5003555;28;20053;-50
2023/12/16 09:55:47;;;;;;;86.70;16.83;;;6.70;99.90;;;;;;5002543;28;20027;-50
2023/12/16 09:58:15;;;;;;;103.68;17.77;;;6.80;99.90;;;;;;4999245;28;20049;-49
2023/12/16 10:00:45;;;;;;;110.35;18.83;;;6.80;99.90;;;;;;4982433;28;20060;-50
2023/12/16 10:03:13;;;;;;;110.28;18.13;;;6.90;99.90;;;;;;4983740;28;20042;-49
2023/12/16 10:05:38;;;;;;;163.02;21.08;;;6.90;99.90;;;;;;5000318;28;20030;-50
2023/12/16 10:08:05;;;;;;;179.70;24.58;;;7.00;99.90;;;;;;5006067;28;20036;-49
2023/12/16 10:10:31;;;;;;;160.25;23.10;;;7.00;99.90;;;;;;5005988;28;20027;-50
2023/12/16 10:13:00;;;;;;;145.05;21.40;;;7.00;99.90;;;;;;5010796;28;20091;-50
2023/12/16 10:15:32;;;;;;;129.75;20.08;;;7.00;99.90;;;;;;4991645;28;20041;-49
2023/12/16 10:18:02;;;;;;;145.15;20.67;;;7.00;99.90;;;;;;5006451;28;20034;-50
2023/12/16 10:20:28;;;;;;;157.85;23.08;;;7.00;99.90;;;;;;5001147;28;20367;-50
2023/12/16 10:22:54;;;;;;;154.38;23.17;;;7.00;99.90;;;;;;4999647;28;20023;-50
2023/12/16 10:25:19;;;;;;;145.75;23.40;;;7.10;99.90;;;;;;4995881;28;20038;-50
2023/12/16 10:27:46;;;;;;;176.00;23.85;;;7.10;99.90;;;;;;4987969;28;20035;-49
2023/12/16 10:30:12;;;;;;;184.60;24.67;;;7.10;99.90;;;;;;5002621;28;20042;-49
2023/12/16 10:32:40;;;;;;;149.10;23.75;;;7.10;99.90;;;;;;5001676;28;20174;-50
2023/12/16 10:35:07;;;;;;;158.18;23.50;;;7.10;99.90;;;;;;5001533;28;20371;-50
2023/12/16 10:37:33;;;;;;;144.85;22.00;;;7.10;99.90;;;;;;4999451;28;20042;-50
2023/12/16 10:39:58;;;;;;;172.07;25.08;;;7.10;99.90;;;;;;4983968;28;20026;-49
2023/12/16 10:42:24;;;;;;;162.70;23.42;;;7.10;99.90;;;;;;5019663;28;20053;-50
2023/12/16 10:44:52;;;;;;;177.75;24.85;;;7.10;99.90;;;;;;4996205;28;20031;-50
2023/12/16 10:47:18;;;;;;;159.02;23.10;;;7.20;99.90;;;;;;5002269;28;20044;-50
2023/12/16 10:49:47;;;;;;;133.77;22.02;;;7.20;99.90;;;;;;4996728;28;20057;-50
2023/12/16 10:52:13;;;;;;;157.65;25.55;;;7.20;99.90;;;;;;4999159;28;20034;-50
2023/12/16 10:54:40;;;;;;;320.85;37.25;;;7.20;99.90;;;;;;5000447;28;20080;-50
2023/12/16 10:57:21;;;;;;;234.98;31.58;;;7.20;99.90;;;;;;5002399;28;20470;-50
2023/12/16 11:00:07;;;;;;;131.68;23.58;;;7.20;99.90;;;;;;5001788;28;20100;-50
2023/12/16 11:02:50;;;;;;;169.60;23.90;;;7.20;99.90;;;;;;5001223;28;20030;-50
2023/12/16 11:05:31;;;;;;;160.63;22.88;;;7.20;99.90;;;;;;4995533;28;20080;-50
2023/12/16 11:07:57;;;;;;;126.22;22.27;;;7.20;99.90;;;;;;4997431;28;20062;-50
2023/12/16 11:10:23;;;;;;;149.77;24.58;;;7.20;99.90;;;;;;4970740;28;20035;-50
2023/12/16 11:12:49;;;;;;;139.23;22.65;;;7.20;99.90;;;;;;4986327;28;20061;-49
2023/12/16 11:15:14;;;;;;;189.10;27.05;;;7.30;99.90;;;;;;4979751;28;20031;-49
2023/12/16 11:17:57;;;;;;;182.88;29.83;;;7.30;99.90;;;;;;4996668;28;20171;-49
2023/12/16 11:20:28;;;;;;;354.88;45.63;;;7.30;99.90;;;;;;4996822;28;20023;-49
2023/12/16 11:22:53;;;;;;;223.27;32.97;;;7.30;99.90;;;;;;5000530;28;20113;-49
2023/12/16 11:25:20;;;;;;;200.40;29.13;;;7.40;99.90;;;;;;4980798;28;20043;-49
2023/12/16 11:27:47;;;;;;;270.35;36.17;;;7.40;99.90;;;;;;4992905;28;20090;-49
2023/12/16 11:30:16;;;;;;;235.15;31.73;;;7.40;99.90;;;;;;5001871;28;20140;-49
2023/12/16 11:32:44;;;;;;;173.07;27.10;;;7.40;99.90;;;;;;5001875;28;20121;-47
2023/12/16 11:35:10;;;;;;;221.05;32.55;;;7.50;99.90;;;;;;4986113;28;20034;-49
2023/12/16 11:37:36;;;;;;;191.63;27.58;;;7.50;99.90;;;;;;5002006;28;20029;-49
2023/12/16 11:40:07;;;;;;;196.15;27.35;;;7.50;99.90;;;;;;5003130;28;20086;-49
2023/12/16 11:42:46;;;;;;;183.63;28.65;;;7.50;99.90;;;;;;5004532;28;20031;-49
2023/12/16 11:45:48;;;;;;;196.93;28.38;;;7.50;99.90;;;;;;5006092;28;20049;-49
2023/12/16 11:48:15;;;;;;;211.75;29.35;;;7.50;99.90;;;;;;5006157;28;20045;-49
2023/12/16 11:50:42;;;;;;;163.73;28.52;;;7.60;99.90;;;;;;4987640;28;20026;-49
2023/12/16 11:53:11;;;;;;;201.80;28.90;;;7.60;99.90;;;;;;5004181;28;20034;-49
2023/12/16 11:55:38;;;;;;;222.55;33.75;;;7.60;99.90;;;;;;4996790;28;20446;-49
2023/12/16 11:58:03;;;;;;;202.82;30.48;;;7.60;99.90;;;;;;5006022;28;20030;-49
2023/12/16 12:00:29;;;;;;;188.63;29.65;;;7.70;99.90;;;;;;5004627;28;20538;-49
2023/12/16 12:02:56;;;;;;;222.40;30.42;;;7.70;99.90;;;;;;5004070;28;20030;-49
2023/12/16 12:05:21;;;;;;;180.75;27.65;;;7.70;99.90;;;;;;5004290;28;20131;-49
2023/12/16 12:07:47;;;;;;;244.70;30.50;;;7.70;99.90;;;;;;5004191;28;20042;-49
2023/12/16 12:10:13;;;;;;;224.35;30.63;;;7.70;99.90;;;;;;5005949;28;20090;-49
2023/12/16 12:12:39;;;;;;;197.57;27.17;;;7.70;99.90;;;;;;5003680;28;20058;-49
2023/12/16 12:15:07;;;;;;;195.35;28.80;;;7.70;99.90;;;;;;5004495;28;20206;-49
2023/12/16 12:17:32;;;;;;;205.82;30.10;;;7.70;99.90;;;;;;5004371;28;20019;-49
2023/12/16 12:19:58;;;;;;;202.63;28.55;;;7.80;99.90;;;;;;4987794;28;20053;-46
2023/12/16 12:22:24;;;;;;;202.43;28.98;;;7.80;99.90;;;;;;4985774;28;20033;-49
2023/12/16 12:24:50;;;;;;;220.95;31.48;;;7.80;99.90;;;;;;5005476;28;20023;-49
2023/12/16 12:27:18;;;;;;;179.48;28.35;;;7.80;99.90;;;;;;5004661;28;20041;-49
2023/12/16 12:29:58;;;;;;;198.32;29.73;;;7.80;99.90;;;;;;4992926;28;20046;-49
2023/12/16 12:32:27;;;;;;;240.43;31.73;;;7.80;99.90;;;;;;5002373;28;20046;-49
2023/12/16 12:35:03;;;;;;;292.45;35.85;;;7.80;99.90;;;;;;5004259;28;20030;-49